createdAt,value
2022-12-05T00:02:14.944Z,38.23
2022-12-05T00:04:44.161Z,34.20
2022-12-05T00:07:12.607Z,33.70
2022-12-05T00:09:40.994Z,35.73
2022-12-05T00:12:09.444Z,33.80
2022-12-05T00:14:38.091Z,35.53
2022-12-05T00:17:07.882Z,34.23
2022-12-05T00:19:36.403Z,33.47
2022-12-05T00:22:04.790Z,33.17
2022-12-05T00:24:33.205Z,33.07
2022-12-05T00:27:01.547Z,32.53
2022-12-05T00:29:29.865Z,31.00
2022-12-05T00:31:58.552Z,29.97
2022-12-05T00:34:28.372Z,35.50
2022-12-05T00:36:56.685Z,32.67
2022-12-05T00:39:25.218Z,28.23
2022-12-05T00:41:53.594Z,39.50
2022-12-05T00:44:21.929Z,33.67
2022-12-05T00:46:50.272Z,33.17
2022-12-05T00:49:18.664Z,36.80
2022-12-05T00:51:48.399Z,36.07
2022-12-05T00:54:18.472Z,30.33
2022-12-05T00:56:47.406Z,35.00
2022-12-05T00:59:18.857Z,35.07
2022-12-05T01:01:50.032Z,32.53
2022-12-05T01:04:22.866Z,33.33
2022-12-05T01:06:57.716Z,32.83
2022-12-05T01:09:27.147Z,35.43
2022-12-05T01:11:55.798Z,31.90
2022-12-05T01:14:26.946Z,34.13
2022-12-05T01:16:57.694Z,34.30
2022-12-05T01:19:29.141Z,37.87
2022-12-05T01:21:59.950Z,39.43
2022-12-05T01:24:35.267Z,39.83
2022-12-05T01:27:03.477Z,41.33
2022-12-05T01:29:31.831Z,37.10
2022-12-05T01:32:00.190Z,40.50
2022-12-05T01:34:28.543Z,41.13
2022-12-05T01:36:58.192Z,45.20
2022-12-05T01:39:26.532Z,40.60
2022-12-05T01:41:54.781Z,39.80
2022-12-05T01:45:04.102Z,36.73
2022-12-05T01:47:36.878Z,36.73
2022-12-05T01:50:06.971Z,36.87
2022-12-05T01:52:37.750Z,34.03
2022-12-05T01:55:13.433Z,32.47
2022-12-05T01:57:42.675Z,35.03
2022-12-05T02:00:15.775Z,34.07
2022-12-05T02:02:53.636Z,31.77
2022-12-05T02:05:29.192Z,30.60
2022-12-05T02:08:01.889Z,32.23
2022-12-05T02:10:36.803Z,29.87
2022-12-05T02:13:16.539Z,32.07
2022-12-05T02:15:56.908Z,29.00
2022-12-05T02:18:42.514Z,32.50
2022-12-05T02:22:02.076Z,31.53
2022-12-05T02:25:20.548Z,33.63
2022-12-05T02:28:23.207Z,31.87
2022-12-05T02:31:00.412Z,37.37
2022-12-05T02:33:38.963Z,35.00
2022-12-05T02:36:16.137Z,37.80
2022-12-05T02:38:53.943Z,35.47
2022-12-05T02:41:29.679Z,35.70
2022-12-05T02:44:06.236Z,36.53
2022-12-05T02:46:40.681Z,38.03
2022-12-05T02:49:12.825Z,39.23
2022-12-05T02:51:46.456Z,39.50
2022-12-05T02:54:19.999Z,38.77
2022-12-05T02:56:51.766Z,37.90
2022-12-05T02:59:23.487Z,35.77
2022-12-05T03:01:53.766Z,41.23
2022-12-05T03:04:26.398Z,38.73
2022-12-05T03:07:00.837Z,38.70
2022-12-05T03:09:36.388Z,40.03
2022-12-05T03:12:11.820Z,36.97
2022-12-05T03:14:47.221Z,39.83
2022-12-05T03:17:23.387Z,37.53
2022-12-05T03:19:59.422Z,40.27
2022-12-05T03:22:35.141Z,36.30
2022-12-05T03:25:05.610Z,37.73
2022-12-05T03:27:50.596Z,43.73
2022-12-05T03:30:21.719Z,36.13
2022-12-05T03:33:02.854Z,37.37
2022-12-05T03:35:38.286Z,38.23
2022-12-05T03:38:13.721Z,38.53
2022-12-05T03:40:48.663Z,39.67
2022-12-05T03:43:35.420Z,36.50
2022-12-05T03:46:10.227Z,38.80
2022-12-05T03:48:51.265Z,37.30
2022-12-05T03:51:24.298Z,34.60
2022-12-05T03:54:00.645Z,36.27
2022-12-05T03:56:38.137Z,35.80
2022-12-05T03:59:16.376Z,38.27
2022-12-05T04:01:47.757Z,37.47
2022-12-05T04:04:25.691Z,40.00
2022-12-05T04:06:58.884Z,43.33
2022-12-05T04:09:32.598Z,43.47
2022-12-05T04:12:08.803Z,43.83
2022-12-05T04:14:43.328Z,46.40
2022-12-05T04:17:19.405Z,42.57
2022-12-05T04:20:11.841Z,44.53
2022-12-05T04:22:41.187Z,43.83
2022-12-05T04:25:31.097Z,42.97
2022-12-05T04:28:16.727Z,44.30
2022-12-05T04:31:02.948Z,49.50
2022-12-05T04:33:42.875Z,44.33
2022-12-05T04:36:20.118Z,44.70
2022-12-05T04:38:53.983Z,50.60
2022-12-05T04:41:27.361Z,44.30
2022-12-05T04:44:02.668Z,50.73
2022-12-05T04:46:30.969Z,45.77
2022-12-05T04:49:07.715Z,43.83
2022-12-05T04:51:40.570Z,47.60
2022-12-05T04:54:22.392Z,48.40
2022-12-05T04:57:00.967Z,44.67
2022-12-05T04:59:29.652Z,49.00
2022-12-05T05:02:05.912Z,50.33
2022-12-05T05:04:39.949Z,47.43
2022-12-05T05:07:12.385Z,48.60
2022-12-05T05:09:41.622Z,46.83
2022-12-05T05:12:14.353Z,49.00
2022-12-05T05:14:45.538Z,53.97
2022-12-05T05:17:13.827Z,49.33
2022-12-05T05:19:42.129Z,48.03
2022-12-05T05:22:11.778Z,49.20
2022-12-05T05:24:40.062Z,52.37
2022-12-05T05:27:08.268Z,51.73
2022-12-05T05:29:36.484Z,54.63
2022-12-05T05:32:04.687Z,51.87
2022-12-05T05:34:33.049Z,43.97
2022-12-05T05:37:01.313Z,52.13
2022-12-05T05:39:30.914Z,53.73
2022-12-05T05:41:59.157Z,46.97
2022-12-05T05:44:27.391Z,50.57
2022-12-05T05:46:55.889Z,56.37
2022-12-05T05:49:24.437Z,63.77
2022-12-05T05:51:52.697Z,55.20
2022-12-05T05:54:21.508Z,59.00
2022-12-05T05:56:52.347Z,59.73
2022-12-05T05:59:20.597Z,58.30
2022-12-05T06:01:48.897Z,66.83
2022-12-05T06:04:17.216Z,57.57
2022-12-05T06:06:45.485Z,63.00
2022-12-05T06:09:13.755Z,55.30
2022-12-05T06:11:42.009Z,62.87
2022-12-05T06:14:11.719Z,59.50
2022-12-05T06:16:40.447Z,57.50
2022-12-05T06:19:08.870Z,61.00
2022-12-05T06:21:37.199Z,68.33
2022-12-05T06:24:06.323Z,66.93
2022-12-05T06:26:34.612Z,61.30
2022-12-05T06:29:02.886Z,63.53
2022-12-05T06:31:33.888Z,64.17
2022-12-05T06:34:03.234Z,47.20
2022-12-05T06:36:32.482Z,70.60
2022-12-05T06:39:01.566Z,64.60
2022-12-05T06:41:29.948Z,62.50
2022-12-05T06:44:02.177Z,67.93
2022-12-05T06:46:32.450Z,66.80
2022-12-05T06:49:01.079Z,68.97
2022-12-05T06:51:29.455Z,64.77
2022-12-05T06:53:58.050Z,65.97
2022-12-05T06:56:26.322Z,67.90
2022-12-05T06:58:55.589Z,64.13
2022-12-05T07:01:42.865Z,59.57
2022-12-05T07:04:20.101Z,71.10
2022-12-05T07:06:50.985Z,64.70
2022-12-05T07:09:23.189Z,72.50
2022-12-05T07:11:52.254Z,70.37
2022-12-05T07:17:08.999Z,84.83
2022-12-05T07:19:38.711Z,62.00
2022-12-05T07:22:10.749Z,77.90
2022-12-05T07:24:43.587Z,75.27
2022-12-05T07:27:11.904Z,59.33
2022-12-05T07:29:52.573Z,79.20
2022-12-05T07:32:21.518Z,76.40
2022-12-05T07:34:55.307Z,72.37
2022-12-05T07:37:24.365Z,73.10
2022-12-05T07:39:53.810Z,66.23
2022-12-05T07:42:22.632Z,70.37
2022-12-05T07:44:51.017Z,95.33
2022-12-05T07:47:19.544Z,84.53
2022-12-05T07:49:48.015Z,78.47
2022-12-05T07:52:17.738Z,67.70
2022-12-05T07:54:46.042Z,66.00
2022-12-05T07:57:14.937Z,69.97
2022-12-05T07:59:43.274Z,66.33
2022-12-05T08:02:11.639Z,70.63
2022-12-05T08:04:41.079Z,65.17
2022-12-05T08:07:11.845Z,62.37
2022-12-05T08:09:41.587Z,67.53
2022-12-05T08:12:10.097Z,66.67
2022-12-05T08:14:38.743Z,63.43
2022-12-05T08:17:07.129Z,58.37
2022-12-05T08:19:35.478Z,60.73
2022-12-05T08:22:03.994Z,64.27
2022-12-05T08:24:32.437Z,67.40
2022-12-05T08:27:02.188Z,67.17
2022-12-05T08:29:30.478Z,60.63
2022-12-05T08:31:58.871Z,62.63
2022-12-05T08:34:28.301Z,62.50
2022-12-05T08:36:56.662Z,60.00
2022-12-05T08:39:25.003Z,61.67
2022-12-05T08:41:53.333Z,64.40
2022-12-05T08:44:23.092Z,59.13
2022-12-05T08:46:51.700Z,55.50
2022-12-05T08:49:20.568Z,61.63
2022-12-05T08:51:49.101Z,60.97
2022-12-05T08:54:18.112Z,58.87
2022-12-05T08:56:46.597Z,57.73
2022-12-05T08:59:14.998Z,61.40
2022-12-05T09:01:45.125Z,62.43
2022-12-05T09:04:13.653Z,58.40
2022-12-05T09:06:42.710Z,63.63
2022-12-05T09:09:12.543Z,61.57
2022-12-05T09:11:46.526Z,58.73
2022-12-05T09:14:16.487Z,62.10
2022-12-05T09:16:48.838Z,61.17
2022-12-05T09:19:21.596Z,62.70
2022-12-05T09:21:49.948Z,60.50
2022-12-05T09:24:18.413Z,60.50
2022-12-05T09:26:47.861Z,63.10
2022-12-05T09:29:17.821Z,66.53
2022-12-05T09:31:51.528Z,62.07
2022-12-05T09:34:20.226Z,71.13
2022-12-05T09:37:05.659Z,57.47
2022-12-05T09:39:40.551Z,50.57
2022-12-05T09:42:39.365Z,57.63
2022-12-05T09:45:26.941Z,58.63
2022-12-05T09:48:05.991Z,53.17
2022-12-05T09:50:44.922Z,58.07
2022-12-05T09:53:25.644Z,52.27
2022-12-05T09:55:58.272Z,53.37
2022-12-05T09:58:41.194Z,54.87
2022-12-05T10:01:28.081Z,57.17
2022-12-05T10:04:48.750Z,52.70
2022-12-05T10:07:24.840Z,52.53
2022-12-05T10:10:08.640Z,45.37
2022-12-05T10:12:57.824Z,56.43
2022-12-05T10:15:34.929Z,52.07
2022-12-05T10:18:10.607Z,47.57
2022-12-05T10:20:48.578Z,47.53
2022-12-05T10:23:55.561Z,49.27
2022-12-05T10:26:16.954Z,49.47
2022-12-05T10:28:57.676Z,47.53
2022-12-05T10:31:31.999Z,43.50
2022-12-05T10:34:10.918Z,51.13
2022-12-05T10:36:41.038Z,54.03
2022-12-05T10:39:11.906Z,51.30
2022-12-05T10:41:40.374Z,48.67
2022-12-05T10:44:09.741Z,47.77
2022-12-05T10:46:38.135Z,49.00
2022-12-05T10:49:12.948Z,54.53
2022-12-05T10:51:42.772Z,51.13
2022-12-05T10:54:21.688Z,52.10
2022-12-05T10:56:52.213Z,56.23
2022-12-05T10:59:24.404Z,47.20
2022-12-05T11:01:57.826Z,47.90
2022-12-05T11:04:32.291Z,49.80
2022-12-05T11:07:07.087Z,48.73
2022-12-05T11:09:38.987Z,50.20
2022-12-05T11:12:21.739Z,46.87
2022-12-05T11:15:01.706Z,44.73
2022-12-05T11:17:35.999Z,47.73
2022-12-05T11:20:27.246Z,49.07
2022-12-05T11:22:59.317Z,51.83
2022-12-05T11:25:32.394Z,47.40
2022-12-05T11:28:24.917Z,49.27
2022-12-05T11:31:00.084Z,45.50
2022-12-05T11:33:33.449Z,51.30
2022-12-05T11:36:13.520Z,49.97
2022-12-05T11:38:44.044Z,49.43
2022-12-05T11:41:40.743Z,49.13
2022-12-05T11:44:43.060Z,50.67
2022-12-05T11:47:25.059Z,51.77
2022-12-05T11:50:16.569Z,42.63
2022-12-05T11:53:04.140Z,43.60
2022-12-05T11:55:43.948Z,44.07
2022-12-05T11:58:54.204Z,42.50
2022-12-05T12:01:38.764Z,37.20
2022-12-05T12:04:48.174Z,39.70
2022-12-05T12:07:31.549Z,39.50
2022-12-05T12:10:19.699Z,40.43
2022-12-05T12:13:05.921Z,38.03
2022-12-05T12:15:53.770Z,37.33
2022-12-05T12:18:46.989Z,37.43
2022-12-05T12:21:24.391Z,42.70
2022-12-05T12:24:12.570Z,41.23
2022-12-05T12:26:55.957Z,42.50
2022-12-05T12:29:44.226Z,38.60
2022-12-05T12:32:30.433Z,41.37
2022-12-05T12:35:24.745Z,40.90
2022-12-05T12:38:15.413Z,40.47
2022-12-05T12:40:50.289Z,41.10
2022-12-05T12:43:54.628Z,42.33
2022-12-05T12:46:41.950Z,36.83
2022-12-05T12:49:40.006Z,41.57
2022-12-05T12:52:16.089Z,37.80
2022-12-05T12:55:20.689Z,44.10
2022-12-05T12:58:07.552Z,40.57
2022-12-05T13:00:57.229Z,42.70
2022-12-05T13:03:32.976Z,40.53
2022-12-05T13:06:08.260Z,44.20
2022-12-05T13:08:45.077Z,38.27
2022-12-05T13:11:16.793Z,38.47
2022-12-05T13:13:50.804Z,39.10
2022-12-05T13:16:27.462Z,37.87
2022-12-05T13:19:02.162Z,37.23
2022-12-05T13:21:32.073Z,37.10
2022-12-05T13:24:03.581Z,37.70
2022-12-05T13:26:34.305Z,41.87
2022-12-05T13:29:05.600Z,33.93
2022-12-05T13:31:41.337Z,38.07
2022-12-05T13:37:30.669Z,36.20
2022-12-05T13:40:17.609Z,35.03
2022-12-05T13:42:48.025Z,34.67
2022-12-05T13:45:21.158Z,38.57
2022-12-05T13:48:08.051Z,36.50
2022-12-05T13:50:49.354Z,37.10
2022-12-05T13:53:37.432Z,37.47
2022-12-05T13:56:24.393Z,41.40
2022-12-05T13:58:55.340Z,34.90
2022-12-05T14:01:55.427Z,37.20
2022-12-05T14:04:51.525Z,37.87
2022-12-05T14:07:43.425Z,35.30
2022-12-05T14:10:16.721Z,33.00
2022-12-05T14:12:55.802Z,38.97
2022-12-05T14:15:34.549Z,37.80
2022-12-05T14:18:14.810Z,31.77
2022-12-05T14:21:07.534Z,38.40
2022-12-05T14:24:03.162Z,35.20
2022-12-05T14:26:52.392Z,33.30
2022-12-05T14:29:40.543Z,35.53
2022-12-05T14:32:24.981Z,31.53
2022-12-05T14:35:02.851Z,34.77
2022-12-05T14:37:35.599Z,30.03
2022-12-05T14:40:20.202Z,29.57
2022-12-05T14:42:56.910Z,28.13
2022-12-05T14:45:32.865Z,29.63
2022-12-05T14:48:05.282Z,30.63
2022-12-05T14:50:44.485Z,27.63
2022-12-05T14:53:25.444Z,24.97
2022-12-05T14:55:57.376Z,28.93
2022-12-05T14:58:36.806Z,24.03
2022-12-05T15:01:09.409Z,24.13
2022-12-05T15:03:43.599Z,26.40
2022-12-05T15:06:17.826Z,25.23
2022-12-05T15:08:51.416Z,28.23
2022-12-05T15:11:29.083Z,26.77
2022-12-05T15:14:12.367Z,26.10
2022-12-05T15:16:45.925Z,26.33
2022-12-05T15:19:24.893Z,31.20
2022-12-05T15:21:58.163Z,25.00
2022-12-05T15:24:27.191Z,27.87
2022-12-05T15:26:57.785Z,29.63
2022-12-05T15:29:32.935Z,24.47
2022-12-05T15:32:05.950Z,24.33
2022-12-05T15:34:41.842Z,23.57
2022-12-05T15:37:16.400Z,24.40
2022-12-05T15:39:59.188Z,25.77
2022-12-05T15:42:30.725Z,26.53
2022-12-05T15:45:24.240Z,21.47
2022-12-05T15:47:56.732Z,24.83
2022-12-05T15:50:37.251Z,21.33
2022-12-05T15:53:14.092Z,23.67
2022-12-05T15:55:47.921Z,23.10
2022-12-05T15:58:25.661Z,24.77
2022-12-05T16:01:02.567Z,19.27
2022-12-05T16:03:42.071Z,20.00
2022-12-05T16:06:18.589Z,19.40
2022-12-05T16:08:48.498Z,21.50
2022-12-05T16:11:17.794Z,20.87
2022-12-05T16:13:50.546Z,22.20
2022-12-05T16:16:24.249Z,19.23
2022-12-05T16:18:56.283Z,23.87
2022-12-05T16:21:38.795Z,19.50
2022-12-05T16:24:16.730Z,22.10
2022-12-05T16:26:57.960Z,17.73
2022-12-05T16:29:29.311Z,18.90
2022-12-05T16:32:02.161Z,23.60
2022-12-05T16:34:35.156Z,19.33
2022-12-05T16:37:03.676Z,21.70
2022-12-05T16:39:32.060Z,19.20
2022-12-05T16:42:00.432Z,18.27
2022-12-05T16:45:03.491Z,17.57
2022-12-05T16:48:02.349Z,19.33
2022-12-05T16:50:34.722Z,22.00
2022-12-05T16:53:13.556Z,19.17
2022-12-05T16:55:44.873Z,19.97
2022-12-05T16:58:21.804Z,23.13
2022-12-05T17:00:50.575Z,17.90
2022-12-05T17:03:34.444Z,19.53
2022-12-05T17:06:03.065Z,20.47
2022-12-05T17:08:31.375Z,19.17
2022-12-05T17:11:01.803Z,20.10
2022-12-05T17:13:32.357Z,20.53
2022-12-05T17:16:00.710Z,20.80
2022-12-05T17:18:32.061Z,20.87
2022-12-05T17:21:03.264Z,19.43
2022-12-05T17:23:31.534Z,21.67
2022-12-05T17:26:00.685Z,24.10
2022-12-05T17:28:29.010Z,25.23
2022-12-05T17:30:57.400Z,22.33
2022-12-05T17:33:25.873Z,23.27
2022-12-05T17:35:55.518Z,21.40
2022-12-05T17:38:23.781Z,19.93
2022-12-05T17:40:52.036Z,21.73
2022-12-05T17:43:25.110Z,22.80
2022-12-05T17:45:54.799Z,24.23
2022-12-05T17:48:23.261Z,20.10
2022-12-05T17:50:51.977Z,20.83
2022-12-05T17:53:22.641Z,24.20
2022-12-05T17:55:51.449Z,27.13
2022-12-05T17:58:20.033Z,25.47
2022-12-05T18:00:48.984Z,24.07
2022-12-05T18:03:19.320Z,25.20
2022-12-05T18:05:48.284Z,27.87
2022-12-05T18:08:17.485Z,25.13
2022-12-05T18:10:50.022Z,24.23
2022-12-05T18:13:19.544Z,25.43
2022-12-05T18:15:49.439Z,30.90
2022-12-05T18:18:19.140Z,24.10
2022-12-05T18:20:47.393Z,27.67
2022-12-05T18:23:15.981Z,25.70
2022-12-05T18:25:44.221Z,25.80
2022-12-05T18:28:17.871Z,26.40
2022-12-05T18:30:48.072Z,25.43
2022-12-05T18:33:16.417Z,29.30
2022-12-05T18:35:45.953Z,27.10
2022-12-05T18:38:14.429Z,26.30
2022-12-05T18:40:42.800Z,28.13
2022-12-05T18:43:11.015Z,32.77
2022-12-05T18:45:40.885Z,29.10
2022-12-05T18:48:31.039Z,30.90
2022-12-05T18:51:06.783Z,25.63
2022-12-05T18:53:35.350Z,29.27
2022-12-05T18:56:25.578Z,28.17
2022-12-05T18:58:56.974Z,28.17
2022-12-05T19:01:28.667Z,25.80
2022-12-05T19:03:59.241Z,27.43
2022-12-05T19:06:32.048Z,28.80
2022-12-05T19:09:02.785Z,29.70
2022-12-05T19:11:31.416Z,31.30
2022-12-05T19:14:01.976Z,28.67
2022-12-05T19:16:34.102Z,29.47
2022-12-05T19:19:05.812Z,39.30
2022-12-05T19:21:36.865Z,32.73
2022-12-05T19:24:08.111Z,33.40
2022-12-05T19:26:37.068Z,31.60
2022-12-05T19:29:06.211Z,30.77
2022-12-05T19:31:36.823Z,33.40
2022-12-05T19:34:07.625Z,30.83
2022-12-05T19:36:38.713Z,32.67
2022-12-05T19:39:14.684Z,31.67
2022-12-05T19:41:43.210Z,31.33
2022-12-05T19:44:12.076Z,31.83
2022-12-05T19:46:42.495Z,36.07
2022-12-05T19:49:17.211Z,33.13
2022-12-05T19:51:46.371Z,32.50
2022-12-05T19:54:17.676Z,30.83
2022-12-05T19:56:46.374Z,36.63
2022-12-05T19:59:16.757Z,33.77
2022-12-05T20:01:46.682Z,36.27
2022-12-05T20:04:17.623Z,37.90
2022-12-05T20:06:49.360Z,37.70
2022-12-05T20:09:21.283Z,35.03
2022-12-05T20:11:55.049Z,37.73
2022-12-05T20:14:26.454Z,34.90
2022-12-05T20:16:56.269Z,39.17
2022-12-05T20:19:24.976Z,39.13
2022-12-05T20:21:55.229Z,37.73
2022-12-05T20:24:23.601Z,36.50
2022-12-05T20:26:52.855Z,33.57
2022-12-05T20:29:21.337Z,36.83
2022-12-05T20:31:56.584Z,36.47
2022-12-05T20:34:26.282Z,36.37
2022-12-05T20:36:55.811Z,35.93
2022-12-05T20:39:24.824Z,36.47
2022-12-05T20:41:54.248Z,34.60
2022-12-05T20:44:23.077Z,34.00
2022-12-05T20:46:51.838Z,34.93
2022-12-05T20:49:20.596Z,36.53
2022-12-05T20:51:50.368Z,36.70
2022-12-05T20:54:18.877Z,39.70
2022-12-05T20:56:47.345Z,39.90
2022-12-05T20:59:16.007Z,43.73
2022-12-05T21:01:44.593Z,42.27
2022-12-05T21:04:13.761Z,39.93
2022-12-05T21:06:45.753Z,38.03
2022-12-05T21:09:26.680Z,38.73
2022-12-05T21:11:55.802Z,39.67
2022-12-05T21:14:25.556Z,33.27
2022-12-05T21:16:54.068Z,32.40
2022-12-05T21:19:22.803Z,31.43
2022-12-05T21:21:53.648Z,33.73
2022-12-05T21:24:23.820Z,33.63
2022-12-05T21:26:52.956Z,31.10
2022-12-05T21:29:21.484Z,34.33
2022-12-05T21:31:52.649Z,32.67
2022-12-05T21:34:22.558Z,31.17
2022-12-05T21:36:51.218Z,32.27
2022-12-05T21:39:19.661Z,32.67
2022-12-05T21:41:49.411Z,34.07
2022-12-05T21:44:19.747Z,35.23
2022-12-05T21:46:48.394Z,31.27
2022-12-05T21:49:16.843Z,31.73
2022-12-05T21:51:45.191Z,36.73
2022-12-05T21:54:13.470Z,31.87
2022-12-05T21:56:42.040Z,30.03
2022-12-05T21:59:11.934Z,33.93
2022-12-05T22:01:40.346Z,25.77
2022-12-05T22:04:10.053Z,26.73
2022-12-05T22:06:38.605Z,31.00
2022-12-05T22:09:07.007Z,29.27
2022-12-05T22:11:35.317Z,29.47
2022-12-05T22:14:03.757Z,28.30
2022-12-05T22:16:33.904Z,31.20
2022-12-05T22:19:02.985Z,28.63
2022-12-05T22:21:33.770Z,25.60
2022-12-05T22:24:02.337Z,26.90
2022-12-05T22:26:30.958Z,26.60
2022-12-05T22:28:59.486Z,27.73
2022-12-05T22:31:27.905Z,24.80
2022-12-05T22:33:57.745Z,24.93
2022-12-05T22:36:26.089Z,27.97
2022-12-05T22:38:54.565Z,26.33
2022-12-05T22:41:25.689Z,26.67
2022-12-05T22:43:57.750Z,25.57
2022-12-05T22:46:28.167Z,28.20
2022-12-05T22:48:58.459Z,29.80
2022-12-05T22:51:27.889Z,28.30
2022-12-05T22:53:56.948Z,28.50
2022-12-05T22:56:27.758Z,26.13
2022-12-05T22:58:57.768Z,29.90
2022-12-05T23:01:29.924Z,27.37
2022-12-05T23:04:02.506Z,33.03
2022-12-05T23:06:32.822Z,31.37
2022-12-05T23:09:02.360Z,30.87
2022-12-05T23:11:31.475Z,29.07
2022-12-05T23:14:02.142Z,29.57
2022-12-05T23:16:33.677Z,28.60
2022-12-05T23:19:06.280Z,24.90
2022-12-05T23:21:36.850Z,29.30
2022-12-05T23:24:08.434Z,28.80
2022-12-05T23:26:40.171Z,30.40
2022-12-05T23:29:09.143Z,32.37
2022-12-05T23:31:37.464Z,28.33
2022-12-05T23:34:08.065Z,28.33
2022-12-05T23:36:38.316Z,26.97
2022-12-05T23:39:07.716Z,31.40
2022-12-05T23:41:36.156Z,27.33
2022-12-05T23:44:04.599Z,29.30
2022-12-05T23:46:33.000Z,29.03
2022-12-05T23:49:01.467Z,26.53
2022-12-05T23:51:31.963Z,28.63
2022-12-05T23:54:02.957Z,30.17
2022-12-05T23:56:34.433Z,30.60
2022-12-05T23:59:05.913Z,30.57
